UAL1260 KSFO-KLAX
Flight info
| Callsign | UAL1260 |
|---|---|
| Flight time | 0h 54m |
| Altitude | 39000 |
| Route | WESLA5 SUSEY EBAYE BURGL IRNMN2 |
| Aircraft | B772/H-SDE2E3FGHIJ5LORVWXY/LB1D1 |
Departure
| Time | 2026-04-23 19:05 |
|---|---|
| Airport | San Francisco International Airport (KSFO) |
Arrival
| Time | 2026-04-23 19:59 |
|---|---|
| Airport | Los Angeles International Airport (KLAX) |
| Time | Latitude | Longitude | Altitude | Speed | Heading |
|---|---|---|---|---|---|
| 2026-04-23 18:36 | 37.62109 | -122.38845 | 26 ft | 0 kts | 208° |
| 2026-04-23 18:55 | 37.62110 | -122.38845 | 26 ft | 1 kts | 208° |
| 2026-04-23 18:55 | 37.62131 | -122.38831 | 26 ft | 4 kts | 208° |
| 2026-04-23 18:55 | 37.62155 | -122.38815 | 25 ft | 4 kts | 208° |
| 2026-04-23 18:56 | 37.62171 | -122.38805 | 26 ft | 4 kts | 198° |
| 2026-04-23 18:56 | 37.62205 | -122.38803 | 26 ft | 4 kts | 157° |
| 2026-04-23 18:56 | 37.62225 | -122.38821 | 25 ft | 3 kts | 120° |
| 2026-04-23 18:56 | 37.62229 | -122.38829 | 25 ft | 0 kts | 118° |
| 2026-04-23 18:59 | 37.62216 | -122.38800 | 26 ft | 14 kts | 118° |
| 2026-04-23 18:59 | 37.62136 | -122.38610 | 26 ft | 19 kts | 118° |
| 2026-04-23 18:59 | 37.62075 | -122.38465 | 26 ft | 19 kts | 117° |
| 2026-04-23 18:59 | 37.62034 | -122.38367 | 26 ft | 19 kts | 117° |
| 2026-04-23 19:00 | 37.61982 | -122.38239 | 25 ft | 19 kts | 117° |
| 2026-04-23 19:00 | 37.61942 | -122.38140 | 26 ft | 19 kts | 117° |
| 2026-04-23 19:00 | 37.61881 | -122.37998 | 26 ft | 19 kts | 119° |
| 2026-04-23 19:00 | 37.61823 | -122.37849 | 26 ft | 19 kts | 112° |
| 2026-04-23 19:01 | 37.61776 | -122.37696 | 24 ft | 19 kts | 111° |
| 2026-04-23 19:01 | 37.61729 | -122.37546 | 26 ft | 19 kts | 112° |
| 2026-04-23 19:01 | 37.61675 | -122.37397 | 26 ft | 19 kts | 119° |
| 2026-04-23 19:01 | 37.61612 | -122.37254 | 26 ft | 19 kts | 118° |
| 2026-04-23 19:02 | 37.61544 | -122.37092 | 26 ft | 22 kts | 118° |
| 2026-04-23 19:02 | 37.61469 | -122.36928 | 26 ft | 22 kts | 126° |
| 2026-04-23 19:02 | 37.61372 | -122.36785 | 26 ft | 22 kts | 126° |
| 2026-04-23 19:02 | 37.61299 | -122.36620 | 26 ft | 22 kts | 117° |
| 2026-04-23 19:03 | 37.61229 | -122.36454 | 25 ft | 22 kts | 118° |
| 2026-04-23 19:03 | 37.61159 | -122.36287 | 26 ft | 22 kts | 118° |
| 2026-04-23 19:03 | 37.61089 | -122.36120 | 26 ft | 22 kts | 117° |
| 2026-04-23 19:03 | 37.61067 | -122.35944 | 26 ft | 21 kts | 59° |
| 2026-04-23 19:04 | 37.61159 | -122.35874 | 26 ft | 12 kts | 6° |
| 2026-04-23 19:04 | 37.61217 | -122.35948 | 26 ft | 13 kts | 297° |
| 2026-04-23 19:04 | 37.61327 | -122.36208 | 26 ft | 67 kts | 298° |
| 2026-04-23 19:04 | 37.61684 | -122.37059 | 27 ft | 150 kts | 298° |
| 2026-04-23 19:05 | 37.62250 | -122.38372 | 594 ft | 176 kts | 299° |
| 2026-04-23 19:05 | 37.62845 | -122.39745 | 1634 ft | 182 kts | 298° |
| 2026-04-23 19:05 | 37.63476 | -122.41254 | 2237 ft | 204 kts | 298° |
| 2026-04-23 19:05 | 37.64132 | -122.42862 | 3109 ft | 209 kts | 298° |
| 2026-04-23 19:06 | 37.64840 | -122.44562 | 3714 ft | 231 kts | 299° |
| 2026-04-23 19:06 | 37.65617 | -122.46356 | 4692 ft | 234 kts | 300° |
| 2026-04-23 19:06 | 37.66430 | -122.48150 | 5741 ft | 233 kts | 300° |
| 2026-04-23 19:06 | 37.66935 | -122.50100 | 6625 ft | 245 kts | 274° |
| 2026-04-23 19:07 | 37.66527 | -122.52280 | 7146 ft | 272 kts | 240° |
| 2026-04-23 19:07 | 37.65175 | -122.54006 | 7985 ft | 284 kts | 211° |
| 2026-04-23 19:07 | 37.63298 | -122.54848 | 8998 ft | 292 kts | 187° |
| 2026-04-23 19:07 | 37.61260 | -122.54605 | 9902 ft | 302 kts | 161° |
| 2026-04-23 19:08 | 37.59305 | -122.53564 | 10619 ft | 312 kts | 155° |
| 2026-04-23 19:08 | 37.57274 | -122.52391 | 11246 ft | 328 kts | 154° |
| 2026-04-23 19:08 | 37.55203 | -122.51122 | 12273 ft | 332 kts | 153° |
| 2026-04-23 19:08 | 37.53105 | -122.49825 | 13240 ft | 339 kts | 154° |
| 2026-04-23 19:09 | 37.50949 | -122.48567 | 14210 ft | 344 kts | 155° |
| 2026-04-23 19:09 | 37.48819 | -122.47215 | 14939 ft | 344 kts | 144° |
| 2026-04-23 19:09 | 37.47077 | -122.45132 | 15489 ft | 350 kts | 130° |
| 2026-04-23 19:09 | 37.45436 | -122.42811 | 16278 ft | 358 kts | 131° |
| 2026-04-23 19:10 | 37.43767 | -122.40479 | 17276 ft | 359 kts | 131° |
| 2026-04-23 19:10 | 37.42081 | -122.38146 | 18193 ft | 364 kts | 131° |
| 2026-04-23 19:10 | 37.40359 | -122.35774 | 18977 ft | 369 kts | 132° |
| 2026-04-23 19:10 | 37.38611 | -122.33380 | 19756 ft | 374 kts | 132° |
| 2026-04-23 19:11 | 37.36833 | -122.30954 | 20424 ft | 383 kts | 133° |
| 2026-04-23 19:11 | 37.35010 | -122.28475 | 21108 ft | 390 kts | 133° |
| 2026-04-23 19:11 | 37.33152 | -122.25954 | 21833 ft | 396 kts | 133° |
| 2026-04-23 19:11 | 37.31267 | -122.23401 | 22583 ft | 402 kts | 133° |
| 2026-04-23 19:12 | 37.29348 | -122.20805 | 23311 ft | 408 kts | 134° |
| 2026-04-23 19:12 | 37.27399 | -122.18169 | 23962 ft | 415 kts | 134° |
| 2026-04-23 19:12 | 37.25444 | -122.15528 | 24594 ft | 421 kts | 135° |
| 2026-04-23 19:12 | 37.23440 | -122.12823 | 25252 ft | 425 kts | 135° |
| 2026-04-23 19:13 | 37.21413 | -122.10093 | 25931 ft | 430 kts | 135° |
| 2026-04-23 19:13 | 37.19363 | -122.07329 | 26584 ft | 435 kts | 136° |
| 2026-04-23 19:13 | 37.17283 | -122.04529 | 27150 ft | 443 kts | 136° |
| 2026-04-23 19:13 | 37.15166 | -122.01682 | 27729 ft | 449 kts | 136° |
| 2026-04-23 19:14 | 37.13068 | -121.98855 | 28400 ft | 452 kts | 136° |
| 2026-04-23 19:14 | 37.10919 | -121.95970 | 29084 ft | 455 kts | 137° |
| 2026-04-23 19:14 | 37.08743 | -121.93054 | 29667 ft | 461 kts | 137° |
| 2026-04-23 19:14 | 37.06538 | -121.90104 | 30222 ft | 466 kts | 137° |
| 2026-04-23 19:15 | 37.04312 | -121.87121 | 30677 ft | 471 kts | 137° |
| 2026-04-23 19:15 | 37.02067 | -121.84114 | 31163 ft | 475 kts | 137° |
| 2026-04-23 19:15 | 36.99803 | -121.81087 | 31658 ft | 478 kts | 138° |
| 2026-04-23 19:15 | 36.97521 | -121.78041 | 32112 ft | 481 kts | 138° |
| 2026-04-23 19:16 | 36.95220 | -121.74974 | 32553 ft | 485 kts | 139° |
| 2026-04-23 19:16 | 36.92905 | -121.71888 | 32999 ft | 488 kts | 139° |
| 2026-04-23 19:16 | 36.90573 | -121.68782 | 33432 ft | 492 kts | 139° |
| 2026-04-23 19:17 | 36.85857 | -121.62508 | 34236 ft | 499 kts | 139° |
| 2026-04-23 19:17 | 36.83476 | -121.59346 | 34585 ft | 501 kts | 139° |
| 2026-04-23 19:17 | 36.81078 | -121.56166 | 34963 ft | 503 kts | 139° |
| 2026-04-23 19:17 | 36.78675 | -121.52978 | 35298 ft | 506 kts | 139° |
| 2026-04-23 19:18 | 36.76253 | -121.49770 | 35622 ft | 509 kts | 141° |
| 2026-04-23 19:18 | 36.73817 | -121.46560 | 35901 ft | 512 kts | 140° |
| 2026-04-23 19:18 | 36.71406 | -121.43369 | 36304 ft | 511 kts | 140° |
| 2026-04-23 19:18 | 36.68978 | -121.40154 | 36869 ft | 508 kts | 140° |
| 2026-04-23 19:19 | 36.64152 | -121.33779 | 37733 ft | 505 kts | 140° |
| 2026-04-23 19:19 | 36.61733 | -121.30597 | 38111 ft | 506 kts | 140° |
| 2026-04-23 19:20 | 36.56902 | -121.24251 | 38910 ft | 504 kts | 141° |
| 2026-04-23 19:20 | 36.54487 | -121.21081 | 39060 ft | 507 kts | 141° |
| 2026-04-23 19:20 | 36.49637 | -121.14712 | 39130 ft | 506 kts | 141° |
| 2026-04-23 19:21 | 36.42392 | -121.05240 | 39170 ft | 504 kts | 140° |
| 2026-04-23 19:22 | 36.37751 | -120.98679 | 39165 ft | 507 kts | 137° |
| 2026-04-23 19:22 | 36.30914 | -120.88667 | 39176 ft | 508 kts | 137° |
| 2026-04-23 19:23 | 36.26310 | -120.82010 | 39159 ft | 509 kts | 136° |
| 2026-04-23 19:24 | 36.19372 | -120.72071 | 39145 ft | 508 kts | 138° |
| 2026-04-23 19:24 | 36.12415 | -120.62220 | 39166 ft | 507 kts | 138° |
| 2026-04-23 19:25 | 36.03161 | -120.49075 | 39165 ft | 506 kts | 138° |
| 2026-04-23 19:26 | 35.96229 | -120.39265 | 39174 ft | 505 kts | 138° |
| 2026-04-23 19:27 | 35.84072 | -120.23958 | 39168 ft | 491 kts | 152° |
| 2026-04-23 19:28 | 35.72546 | -120.15273 | 39155 ft | 485 kts | 156° |
| 2026-04-23 19:29 | 35.64056 | -120.08896 | 39052 ft | 486 kts | 156° |
| 2026-04-23 19:30 | 35.58323 | -120.04560 | 38130 ft | 479 kts | 156° |
| 2026-04-23 19:30 | 35.55505 | -120.02424 | 37750 ft | 473 kts | 156° |
| 2026-04-23 19:30 | 35.49960 | -119.98237 | 36933 ft | 464 kts | 156° |
| 2026-04-23 19:31 | 35.47221 | -119.96175 | 36535 ft | 460 kts | 156° |
| 2026-04-23 19:31 | 35.44505 | -119.94135 | 36145 ft | 456 kts | 156° |
| 2026-04-23 19:31 | 35.41814 | -119.92114 | 35741 ft | 452 kts | 156° |
| 2026-04-23 19:31 | 35.39136 | -119.90104 | 35327 ft | 450 kts | 155° |
| 2026-04-23 19:32 | 35.36479 | -119.88112 | 34908 ft | 447 kts | 155° |
| 2026-04-23 19:32 | 35.33829 | -119.86125 | 34506 ft | 445 kts | 155° |
| 2026-04-23 19:32 | 35.31195 | -119.84153 | 34098 ft | 443 kts | 155° |
| 2026-04-23 19:32 | 35.28575 | -119.82183 | 33638 ft | 442 kts | 154° |
| 2026-04-23 19:33 | 35.26038 | -119.80033 | 33219 ft | 444 kts | 150° |
| 2026-04-23 19:33 | 35.23597 | -119.77738 | 32804 ft | 442 kts | 148° |
| 2026-04-23 19:33 | 35.18797 | -119.73081 | 31981 ft | 437 kts | 148° |
| 2026-04-23 19:34 | 35.16410 | -119.70795 | 31582 ft | 435 kts | 148° |
| 2026-04-23 19:34 | 35.14005 | -119.68526 | 30822 ft | 442 kts | 148° |
| 2026-04-23 19:34 | 35.09024 | -119.63885 | 29188 ft | 454 kts | 148° |
| 2026-04-23 19:35 | 35.06513 | -119.61549 | 28435 ft | 455 kts | 148° |
| 2026-04-23 19:35 | 35.03995 | -119.59207 | 27755 ft | 454 kts | 148° |
| 2026-04-23 19:35 | 35.01491 | -119.56878 | 27216 ft | 450 kts | 147° |
| 2026-04-23 19:35 | 34.99010 | -119.54572 | 26727 ft | 446 kts | 147° |
| 2026-04-23 19:36 | 34.96559 | -119.52295 | 26294 ft | 441 kts | 148° |
| 2026-04-23 19:36 | 34.94091 | -119.50011 | 26150 ft | 449 kts | 148° |
| 2026-04-23 19:36 | 34.91641 | -119.47744 | 26100 ft | 446 kts | 148° |
| 2026-04-23 19:36 | 34.89150 | -119.45468 | 25891 ft | 439 kts | 148° |
| 2026-04-23 19:37 | 34.86701 | -119.43276 | 25449 ft | 435 kts | 149° |
| 2026-04-23 19:37 | 34.84297 | -119.41141 | 24971 ft | 432 kts | 148° |
| 2026-04-23 19:37 | 34.81884 | -119.38995 | 24473 ft | 430 kts | 148° |
| 2026-04-23 19:37 | 34.79477 | -119.36849 | 24004 ft | 428 kts | 148° |
| 2026-04-23 19:38 | 34.77086 | -119.34713 | 23538 ft | 425 kts | 148° |
| 2026-04-23 19:38 | 34.74710 | -119.32592 | 23154 ft | 421 kts | 148° |
| 2026-04-23 19:38 | 34.73424 | -119.31456 | 23016 ft | 420 kts | 149° |
| 2026-04-23 19:38 | 34.71063 | -119.29393 | 22600 ft | 417 kts | 149° |
| 2026-04-23 19:39 | 34.68712 | -119.27347 | 22086 ft | 414 kts | 149° |
| 2026-04-23 19:39 | 34.66379 | -119.25312 | 21575 ft | 413 kts | 149° |
| 2026-04-23 19:39 | 34.64044 | -119.23279 | 21108 ft | 411 kts | 149° |
| 2026-04-23 19:39 | 34.61723 | -119.21276 | 20632 ft | 408 kts | 149° |
| 2026-04-23 19:40 | 34.59409 | -119.19290 | 20177 ft | 406 kts | 149° |
| 2026-04-23 19:40 | 34.57114 | -119.17309 | 19757 ft | 404 kts | 149° |
| 2026-04-23 19:40 | 34.54836 | -119.15328 | 19364 ft | 401 kts | 148° |
| 2026-04-23 19:40 | 34.52593 | -119.13341 | 18968 ft | 399 kts | 148° |
| 2026-04-23 19:41 | 34.50357 | -119.11352 | 18598 ft | 398 kts | 148° |
| 2026-04-23 19:41 | 34.48130 | -119.09373 | 18212 ft | 395 kts | 148° |
| 2026-04-23 19:41 | 34.45926 | -119.07419 | 17827 ft | 391 kts | 148° |
| 2026-04-23 19:41 | 34.43736 | -119.05487 | 17442 ft | 388 kts | 148° |
| 2026-04-23 19:42 | 34.41551 | -119.03590 | 17049 ft | 385 kts | 148° |
| 2026-04-23 19:42 | 34.39376 | -119.01714 | 16594 ft | 383 kts | 148° |
| 2026-04-23 19:42 | 34.37212 | -118.99845 | 16194 ft | 380 kts | 148° |
| 2026-04-23 19:42 | 34.35068 | -118.97991 | 15794 ft | 377 kts | 148° |
| 2026-04-23 19:43 | 34.32950 | -118.96130 | 15424 ft | 375 kts | 147° |
| 2026-04-23 19:43 | 34.30876 | -118.94241 | 15021 ft | 372 kts | 146° |
| 2026-04-23 19:43 | 34.28814 | -118.92355 | 14618 ft | 370 kts | 146° |
| 2026-04-23 19:43 | 34.26763 | -118.90489 | 14235 ft | 368 kts | 146° |
| 2026-04-23 19:44 | 34.24723 | -118.88635 | 13812 ft | 366 kts | 146° |
| 2026-04-23 19:44 | 34.22706 | -118.86782 | 13384 ft | 363 kts | 145° |
| 2026-04-23 19:44 | 34.20702 | -118.84936 | 12986 ft | 360 kts | 145° |
| 2026-04-23 19:44 | 34.18721 | -118.83115 | 12627 ft | 356 kts | 145° |
| 2026-04-23 19:45 | 34.16782 | -118.81334 | 12527 ft | 343 kts | 145° |
| 2026-04-23 19:45 | 34.14974 | -118.79539 | 12408 ft | 332 kts | 141° |
| 2026-04-23 19:45 | 34.13287 | -118.77684 | 12235 ft | 323 kts | 140° |
| 2026-04-23 19:45 | 34.11673 | -118.75875 | 11908 ft | 320 kts | 140° |
| 2026-04-23 19:46 | 34.10016 | -118.74039 | 11570 ft | 318 kts | 140° |
| 2026-04-23 19:46 | 34.08404 | -118.72273 | 11257 ft | 316 kts | 140° |
| 2026-04-23 19:46 | 34.06786 | -118.70516 | 10920 ft | 312 kts | 140° |
| 2026-04-23 19:46 | 34.05169 | -118.68773 | 10566 ft | 312 kts | 140° |
| 2026-04-23 19:47 | 34.04101 | -118.67577 | 10319 ft | 308 kts | 135° |
| 2026-04-23 19:47 | 34.02769 | -118.64573 | 9650 ft | 313 kts | 101° |
| 2026-04-23 19:47 | 34.02521 | -118.62017 | 9368 ft | 304 kts | 95° |
| 2026-04-23 19:47 | 34.02309 | -118.59504 | 9033 ft | 302 kts | 96° |
| 2026-04-23 19:48 | 34.02081 | -118.57046 | 8602 ft | 285 kts | 96° |
| 2026-04-23 19:48 | 34.01858 | -118.54667 | 8325 ft | 288 kts | 95° |
| 2026-04-23 19:48 | 34.01710 | -118.53075 | 8132 ft | 288 kts | 95° |
| 2026-04-23 19:48 | 34.01411 | -118.49881 | 7747 ft | 285 kts | 95° |
| 2026-04-23 19:49 | 34.01260 | -118.48290 | 7588 ft | 283 kts | 95° |
| 2026-04-23 19:49 | 34.01052 | -118.45974 | 7300 ft | 277 kts | 92° |
| 2026-04-23 19:49 | 34.01233 | -118.43732 | 7127 ft | 264 kts | 77° |
| 2026-04-23 19:49 | 34.01637 | -118.41614 | 7020 ft | 255 kts | 76° |
| 2026-04-23 19:50 | 34.02028 | -118.39567 | 6943 ft | 245 kts | 76° |
| 2026-04-23 19:50 | 34.02398 | -118.37539 | 6507 ft | 253 kts | 77° |
| 2026-04-23 19:50 | 34.02765 | -118.35471 | 6426 ft | 252 kts | 78° |
| 2026-04-23 19:50 | 34.03018 | -118.33393 | 6370 ft | 250 kts | 82° |
| 2026-04-23 19:51 | 34.03214 | -118.31322 | 6326 ft | 247 kts | 83° |
| 2026-04-23 19:51 | 34.03409 | -118.29275 | 6268 ft | 245 kts | 82° |
| 2026-04-23 19:51 | 34.03641 | -118.27253 | 6221 ft | 242 kts | 81° |
| 2026-04-23 19:51 | 34.03877 | -118.25295 | 6022 ft | 230 kts | 80° |
| 2026-04-23 19:52 | 34.04111 | -118.23367 | 5750 ft | 234 kts | 81° |
| 2026-04-23 19:52 | 34.04333 | -118.21434 | 5708 ft | 231 kts | 81° |
| 2026-04-23 19:52 | 34.04555 | -118.19515 | 5649 ft | 230 kts | 81° |
| 2026-04-23 19:52 | 34.04778 | -118.17622 | 5471 ft | 226 kts | 81° |
| 2026-04-23 19:53 | 34.04946 | -118.15762 | 5209 ft | 221 kts | 93° |
| 2026-04-23 19:53 | 34.04383 | -118.14092 | 4790 ft | 220 kts | 133° |
| 2026-04-23 19:53 | 34.03019 | -118.13272 | 4216 ft | 226 kts | 174° |
| 2026-04-23 19:53 | 34.01488 | -118.13456 | 4124 ft | 220 kts | 188° |
| 2026-04-23 19:54 | 34.00037 | -118.13952 | 3989 ft | 215 kts | 200° |
| 2026-04-23 19:54 | 33.98665 | -118.14679 | 3878 ft | 217 kts | 203° |
| 2026-04-23 19:54 | 33.97307 | -118.15439 | 3735 ft | 210 kts | 208° |
| 2026-04-23 19:54 | 33.96282 | -118.16635 | 3599 ft | 209 kts | 243° |
| 2026-04-23 19:55 | 33.95872 | -118.18303 | 3362 ft | 207 kts | 260° |
| 2026-04-23 19:55 | 33.95627 | -118.19991 | 3101 ft | 207 kts | 262° |
| 2026-04-23 19:55 | 33.95436 | -118.21725 | 2817 ft | 203 kts | 263° |
| 2026-04-23 19:55 | 33.95272 | -118.23335 | 2549 ft | 190 kts | 262° |
| 2026-04-23 19:56 | 33.95117 | -118.24850 | 2316 ft | 176 kts | 262° |
| 2026-04-23 19:56 | 33.94975 | -118.26241 | 2093 ft | 158 kts | 263° |
| 2026-04-23 19:56 | 33.94849 | -118.27476 | 1895 ft | 140 kts | 263° |
| 2026-04-23 19:56 | 33.94737 | -118.28572 | 1753 ft | 128 kts | 262° |
| 2026-04-23 19:57 | 33.94621 | -118.29683 | 1558 ft | 132 kts | 263° |
| 2026-04-23 19:57 | 33.94509 | -118.30772 | 1369 ft | 133 kts | 263° |
| 2026-04-23 19:57 | 33.94392 | -118.31892 | 1190 ft | 132 kts | 262° |
| 2026-04-23 19:57 | 33.94275 | -118.32982 | 985 ft | 133 kts | 262° |
| 2026-04-23 19:58 | 33.94164 | -118.34091 | 807 ft | 131 kts | 261° |
| 2026-04-23 19:58 | 33.94051 | -118.35190 | 649 ft | 135 kts | 261° |
| 2026-04-23 19:58 | 33.93936 | -118.36295 | 456 ft | 132 kts | 260° |
| 2026-04-23 19:58 | 33.93823 | -118.37389 | 283 ft | 133 kts | 263° |
| 2026-04-23 19:59 | 33.93713 | -118.38503 | 123 ft | 135 kts | 263° |
| 2026-04-23 19:59 | 33.93609 | -118.39534 | 102 ft | 110 kts | 262° |
| 2026-04-23 19:59 | 33.93536 | -118.40256 | 101 ft | 61 kts | 265° |
| 2026-04-23 19:59 | 33.93558 | -118.40527 | 100 ft | 27 kts | 288° |
| 2026-04-23 20:00 | 33.93594 | -118.40727 | 100 ft | 22 kts | 267° |
| 2026-04-23 20:00 | 33.93618 | -118.40869 | 100 ft | 15 kts | 315° |
| 2026-04-23 20:00 | 33.93718 | -118.40904 | 100 ft | 15 kts | 352° |
| 2026-04-23 20:00 | 33.93784 | -118.40883 | 98 ft | 9 kts | 60° |
| 2026-04-23 20:01 | 33.93797 | -118.40809 | 101 ft | 9 kts | 83° |
| 2026-04-23 20:01 | 33.93804 | -118.40734 | 100 ft | 9 kts | 83° |
| 2026-04-23 20:01 | 33.93812 | -118.40659 | 101 ft | 9 kts | 82° |
| 2026-04-23 20:01 | 33.93821 | -118.40584 | 101 ft | 9 kts | 83° |
| 2026-04-23 20:02 | 33.93828 | -118.40504 | 101 ft | 14 kts | 84° |
| 2026-04-23 20:02 | 33.93844 | -118.40340 | 100 ft | 23 kts | 83° |
| 2026-04-23 20:02 | 33.93865 | -118.40152 | 103 ft | 23 kts | 82° |
| 2026-04-23 20:02 | 33.93884 | -118.40063 | 102 ft | 7 kts | 43° |
| 2026-04-23 20:03 | 33.93914 | -118.40054 | 100 ft | 3 kts | 4° |
| 2026-04-23 20:03 | 33.93950 | -118.40039 | 101 ft | 10 kts | 47° |
| 2026-04-23 20:03 | 33.93965 | -118.39959 | 101 ft | 11 kts | 83° |
| 2026-04-23 20:03 | 33.93975 | -118.39865 | 98 ft | 10 kts | 79° |
| 2026-04-23 20:04 | 33.94032 | -118.39825 | 100 ft | 10 kts | 3° |
| 2026-04-23 20:04 | 33.94074 | -118.39840 | 98 ft | 5 kts | 305° |
| 2026-04-23 20:04 | 33.94089 | -118.39870 | 97 ft | 3 kts | 304° |
| 2026-04-23 20:04 | 33.94099 | -118.39885 | 101 ft | 2 kts | 307° |
| 2026-04-23 20:05 | 33.94104 | -118.39893 | 100 ft | 1 kts | 307° |
| 2026-04-23 20:05 | 33.94106 | -118.39895 | 100 ft | 0 kts | 307° |